Time;durP1;ratioP1;P1;durP2;ratioP2;P2;SDS_P1;SDS_P2;PMS_P1;PMS_P2;Temp;Humidity;BMP_temperature;BMP_pressure;BME280_temperature;BME280_humidity;BME280_pressure;Samples;Min_cycle;Max_cycle;Signal;HPM_P1;HPM_P2
2022/04/07 00:01:32;;;;;;;11.98;4.18;;;;;;;;;;4994874;28;99761;-74
2022/04/07 00:03:58;;;;;;;8.63;3.80;;;;;;;;;;4995635;28;98465;-74
2022/04/07 00:06:25;;;;;;;6.07;3.65;;;;;;;;;;4997573;28;99322;-75
2022/04/07 00:08:51;;;;;;;6.70;3.58;;;;;;;;;;4995760;28;97664;-75
2022/04/07 00:11:17;;;;;;;7.32;3.20;;;;;;;;;;4995542;28;98790;-75
2022/04/07 00:13:44;;;;;;;8.80;4.43;;;;;;;;;;4994986;28;99736;-75
2022/04/07 00:16:10;;;;;;;8.38;3.47;;;;;;;;;;4994482;28;99180;-74
2022/04/07 00:18:37;;;;;;;9.77;3.10;;;;;;;;;;4995330;28;100054;-74
2022/04/07 00:21:06;;;;;;;8.45;2.92;;;;;;;;;;4994652;28;99697;-76
2022/04/07 00:23:33;;;;;;;10.90;3.47;;;;;;;;;;4994987;28;98367;-75
2022/04/07 00:25:59;;;;;;;11.45;3.45;;;;;;;;;;4994987;28;99621;-75
2022/04/07 00:28:26;;;;;;;14.73;3.20;;;;;;;;;;4997811;28;100290;-74
2022/04/07 00:30:52;;;;;;;6.40;2.67;;;;;;;;;;4994877;28;99821;-76
2022/04/07 00:33:18;;;;;;;9.57;2.70;;;;;;;;;;4995160;28;98531;-75
2022/04/07 00:35:45;;;;;;;8.13;2.75;;;;;;;;;;4995046;28;98366;-75
2022/04/07 00:38:11;;;;;;;9.00;2.53;;;;;;;;;;4994848;28;99881;-75
2022/04/07 00:40:37;;;;;;;7.68;2.97;;;;;;;;;;4994093;28;99743;-75
2022/04/07 00:43:04;;;;;;;8.57;2.50;;;;;;;;;;4994911;28;98546;-75
2022/04/07 00:45:31;;;;;;;13.82;2.75;;;;;;;;;;4994837;28;100019;-75
2022/04/07 00:47:58;;;;;;;6.60;2.53;;;;;;;;;;4992816;28;102638;-76
2022/04/07 00:50:25;;;;;;;12.80;3.03;;;;;;;;;;4997963;28;98245;-76
2022/04/07 00:52:52;;;;;;;16.25;3.08;;;;;;;;;;4994246;28;99648;-74
2022/04/07 00:55:19;;;;;;;14.10;3.00;;;;;;;;;;4993754;28;98412;-76
2022/04/07 00:57:46;;;;;;;10.82;2.75;;;;;;;;;;4994851;28;99397;-76
2022/04/07 01:00:13;;;;;;;9.35;2.22;;;;;;;;;;4994098;28;98793;-76
2022/04/07 01:02:39;;;;;;;8.80;2.88;;;;;;;;;;4994728;28;98384;-75
2022/04/07 01:05:07;;;;;;;9.88;2.70;;;;;;;;;;4994240;28;99228;-76
2022/04/07 01:07:37;;;;;;;12.85;2.92;;;;;;;;;;4994106;28;99800;-75
2022/04/07 01:10:04;;;;;;;8.82;3.30;;;;;;;;;;4997622;28;98445;-75
2022/04/07 01:12:30;;;;;;;11.13;3.53;;;;;;;;;;4993884;28;99827;-75
2022/04/07 01:15:01;;;;;;;9.68;3.40;;;;;;;;;;4994243;28;98401;-75
2022/04/07 01:17:27;;;;;;;12.27;4.30;;;;;;;;;;4994263;28;99444;-76
2022/04/07 01:19:54;;;;;;;7.22;3.22;;;;;;;;;;4994007;28;99675;-75
2022/04/07 01:22:21;;;;;;;9.68;3.65;;;;;;;;;;4994796;28;97610;-74
2022/04/07 01:24:47;;;;;;;10.40;3.42;;;;;;;;;;4994258;28;98996;-75
2022/04/07 01:27:15;;;;;;;8.13;3.30;;;;;;;;;;4992325;28;101667;-75
2022/04/07 01:29:42;;;;;;;8.65;3.17;;;;;;;;;;4993540;28;99162;-75
2022/04/07 01:32:38;;;;;;;12.45;3.58;;;;;;;;;;4997170;28;100404;-77
2022/04/07 01:35:05;;;;;;;11.13;3.35;;;;;;;;;;4989155;28;98451;-76
2022/04/07 01:37:31;;;;;;;12.60;3.50;;;;;;;;;;4993930;28;99448;-76
2022/04/07 01:39:59;;;;;;;10.73;3.53;;;;;;;;;;4993463;28;100074;-75
2022/04/07 01:42:25;;;;;;;9.65;3.58;;;;;;;;;;4994047;28;98274;-75
2022/04/07 01:44:54;;;;;;;10.35;4.00;;;;;;;;;;4994000;28;99406;-75
2022/04/07 01:47:21;;;;;;;7.53;4.10;;;;;;;;;;4992300;28;100349;-75
2022/04/07 01:50:06;;;;;;;11.98;4.22;;;;;;;;;;4993570;28;98399;-76
2022/04/07 01:52:36;;;;;;;16.13;4.60;;;;;;;;;;4993642;28;99693;-76
2022/04/07 01:55:03;;;;;;;10.52;5.50;;;;;;;;;;4995242;28;100421;-75
2022/04/07 01:57:30;;;;;;;15.27;6.05;;;;;;;;;;4993981;28;100127;-74
2022/04/07 01:59:57;;;;;;;20.23;6.18;;;;;;;;;;4993378;28;99727;-76
2022/04/07 02:02:24;;;;;;;12.40;5.15;;;;;;;;;;4993382;28;98419;-75
2022/04/07 02:05:00;;;;;;;10.40;5.22;;;;;;;;;;4993785;28;99544;-75
2022/04/07 02:07:30;;;;;;;14.13;5.22;;;;;;;;;;4992857;28;99630;-75
2022/04/07 02:09:57;;;;;;;14.20;6.00;;;;;;;;;;4993542;28;98391;-76
2022/04/07 02:12:23;;;;;;;15.02;5.55;;;;;;;;;;4994122;28;99621;-75
2022/04/07 02:14:50;;;;;;;21.63;5.85;;;;;;;;;;4992855;28;99747;-75
2022/04/07 02:17:20;;;;;;;13.90;4.68;;;;;;;;;;4996733;28;98400;-75
2022/04/07 02:19:50;;;;;;;15.75;4.60;;;;;;;;;;4991552;28;103114;-75
2022/04/07 02:22:17;;;;;;;23.52;4.68;;;;;;;;;;4993329;28;98282;-74
2022/04/07 02:24:44;;;;;;;19.70;4.47;;;;;;;;;;4993462;28;99377;-75
2022/04/07 02:27:10;;;;;;;18.40;3.70;;;;;;;;;;4992780;28;101367;-74
2022/04/07 02:29:36;;;;;;;15.73;4.30;;;;;;;;;;4993191;28;98432;-76
2022/04/07 02:32:03;;;;;;;16.00;3.47;;;;;;;;;;4993492;28;99440;-75
2022/04/07 02:34:30;;;;;;;13.23;3.55;;;;;;;;;;4992771;28;100680;-74
2022/04/07 02:36:56;;;;;;;15.65;3.58;;;;;;;;;;4993809;28;97480;-76
2022/04/07 02:39:22;;;;;;;15.00;3.50;;;;;;;;;;4996101;28;98779;-74
2022/04/07 02:41:49;;;;;;;15.35;3.85;;;;;;;;;;4993069;28;98294;-75
2022/04/07 02:44:18;;;;;;;15.68;3.28;;;;;;;;;;4992408;28;99244;-76
2022/04/07 02:46:44;;;;;;;17.77;3.72;;;;;;;;;;4992656;28;99535;-75
2022/04/07 02:49:11;;;;;;;16.58;3.38;;;;;;;;;;4992736;28;98389;-76
2022/04/07 02:51:37;;;;;;;15.27;3.78;;;;;;;;;;4993088;28;99242;-74
2022/04/07 02:54:04;;;;;;;16.65;3.72;;;;;;;;;;4992552;28;100003;-74
2022/04/07 02:56:30;;;;;;;18.50;3.83;;;;;;;;;;4992983;28;98438;-74
2022/04/07 02:58:56;;;;;;;22.27;5.07;;;;;;;;;;4992564;28;100703;-76
2022/04/07 03:01:27;;;;;;;16.35;4.20;;;;;;;;;;4996269;28;98889;-76
2022/04/07 03:03:55;;;;;;;15.38;3.78;;;;;;;;;;4992942;28;98792;-75
2022/04/07 03:06:22;;;;;;;27.70;5.10;;;;;;;;;;4992633;28;99166;-75
2022/04/07 03:08:49;;;;;;;14.43;4.78;;;;;;;;;;4992334;28;99109;-75
2022/04/07 03:11:15;;;;;;;18.10;4.38;;;;;;;;;;4992372;28;100308;-75
2022/04/07 03:13:42;;;;;;;22.77;3.97;;;;;;;;;;4992515;28;99532;-78
2022/04/07 03:16:08;;;;;;;25.08;4.25;;;;;;;;;;4992756;28;98486;-76
2022/04/07 03:18:35;;;;;;;22.42;4.30;;;;;;;;;;4993330;28;99365;-75
2022/04/07 03:21:02;;;;;;;15.55;4.57;;;;;;;;;;4999072;28;100176;-75
2022/04/07 03:23:28;;;;;;;19.77;4.55;;;;;;;;;;4996336;28;98685;-75
2022/04/07 03:25:55;;;;;;;15.57;3.67;;;;;;;;;;4996485;28;98299;-76
2022/04/07 03:28:21;;;;;;;20.25;5.07;;;;;;;;;;4996058;28;98360;-74
2022/04/07 03:30:47;;;;;;;18.92;4.07;;;;;;;;;;4995925;28;98949;-75
2022/04/07 03:33:14;;;;;;;18.08;4.00;;;;;;;;;;4994030;28;101787;-75
2022/04/07 03:35:42;;;;;;;19.35;4.05;;;;;;;;;;4996079;28;98424;-75
2022/04/07 03:38:08;;;;;;;22.52;4.30;;;;;;;;;;4995882;28;99689;-75
2022/04/07 03:40:35;;;;;;;19.90;4.35;;;;;;;;;;4995121;28;99980;-75
2022/04/07 03:43:01;;;;;;;23.98;5.00;;;;;;;;;;4999322;28;98402;-74
2022/04/07 03:45:28;;;;;;;13.40;3.72;;;;;;;;;;4994543;28;99692;-76
2022/04/07 03:47:54;;;;;;;22.27;4.65;;;;;;;;;;4995655;28;98507;-74
2022/04/07 03:50:20;;;;;;;22.23;5.20;;;;;;;;;;4996169;28;99407;-74
2022/04/07 03:52:47;;;;;;;13.63;3.72;;;;;;;;;;4995235;28;99510;-74
2022/04/07 03:55:13;;;;;;;17.80;4.07;;;;;;;;;;4995469;28;98416;-75
2022/04/07 03:57:39;;;;;;;15.15;4.47;;;;;;;;;;4995174;28;98932;-75
2022/04/07 04:00:06;;;;;;;18.92;4.70;;;;;;;;;;4995461;28;100232;-75
2022/04/07 04:02:38;;;;;;;17.63;6.65;;;;;;;;;;4995799;28;98394;-75
2022/04/07 04:05:05;;;;;;;21.00;5.88;;;;;;;;;;4998257;28;99290;-75
2022/04/07 04:07:31;;;;;;;19.27;5.47;;;;;;;;;;4995402;28;98425;-75
2022/04/07 04:09:58;;;;;;;19.05;5.38;;;;;;;;;;4994324;28;99363;-75
2022/04/07 04:12:25;;;;;;;14.50;4.32;;;;;;;;;;4995117;28;99754;-75
2022/04/07 04:14:52;;;;;;;15.93;4.72;;;;;;;;;;4996109;28;97770;-75
2022/04/07 04:17:18;;;;;;;13.88;5.13;;;;;;;;;;4995199;28;98686;-75
2022/04/07 04:19:44;;;;;;;12.82;4.68;;;;;;;;;;4994956;28;99647;-75
2022/04/07 04:22:11;;;;;;;15.93;4.15;;;;;;;;;;4994611;28;99113;-74
2022/04/07 04:24:37;;;;;;;13.07;4.53;;;;;;;;;;4995236;28;100525;-74
2022/04/07 04:27:05;;;;;;;12.30;4.55;;;;;;;;;;4997214;28;99739;-76
2022/04/07 04:29:31;;;;;;;13.05;4.45;;;;;;;;;;4995307;28;99517;-75
2022/04/07 04:31:57;;;;;;;18.38;5.00;;;;;;;;;;4994667;28;99551;-75
2022/04/07 04:34:24;;;;;;;15.63;4.53;;;;;;;;;;4995171;28;98298;-75
2022/04/07 04:36:50;;;;;;;12.55;4.10;;;;;;;;;;4994971;28;98814;-75
2022/04/07 04:39:16;;;;;;;20.42;4.22;;;;;;;;;;4994972;28;97646;-75
2022/04/07 04:41:43;;;;;;;25.67;4.57;;;;;;;;;;4994975;28;98420;-75
2022/04/07 04:44:09;;;;;;;13.88;3.70;;;;;;;;;;4994589;28;100321;-75
2022/04/07 04:46:36;;;;;;;19.65;4.28;;;;;;;;;;4992899;28;100714;-75
2022/04/07 04:49:02;;;;;;;16.42;3.90;;;;;;;;;;4997845;28;98477;-74
2022/04/07 04:51:28;;;;;;;15.82;3.50;;;;;;;;;;4994185;28;99258;-74
2022/04/07 04:53:55;;;;;;;13.10;3.30;;;;;;;;;;4994602;28;98308;-75
2022/04/07 04:56:21;;;;;;;12.98;3.13;;;;;;;;;;4994658;28;99468;-75
2022/04/07 04:58:48;;;;;;;10.55;3.40;;;;;;;;;;4994114;28;99735;-74
2022/04/07 05:01:15;;;;;;;8.43;3.08;;;;;;;;;;4994623;28;98442;-75
2022/04/07 05:03:41;;;;;;;14.80;3.35;;;;;;;;;;4993907;28;102352;-74
2022/04/07 05:06:08;;;;;;;10.85;3.30;;;;;;;;;;4993806;28;99338;-74
2022/04/07 05:08:34;;;;;;;14.20;3.67;;;;;;;;;;4994336;28;98394;-76
2022/04/07 05:11:00;;;;;;;8.73;3.28;;;;;;;;;;4996667;28;99869;-74
2022/04/07 05:13:27;;;;;;;13.13;3.58;;;;;;;;;;4994380;28;98449;-76
2022/04/07 05:15:53;;;;;;;8.80;3.38;;;;;;;;;;4994867;28;98887;-74
2022/04/07 05:18:19;;;;;;;9.88;3.50;;;;;;;;;;4993735;28;99582;-75
2022/04/07 05:20:46;;;;;;;11.60;3.58;;;;;;;;;;4994006;28;98455;-74
2022/04/07 05:23:12;;;;;;;13.40;3.78;;;;;;;;;;4994345;28;99550;-73
2022/04/07 05:25:38;;;;;;;8.82;3.63;;;;;;;;;;4993623;28;99604;-75
2022/04/07 05:28:06;;;;;;;13.98;4.00;;;;;;;;;;4994724;28;97636;-74
2022/04/07 05:30:32;;;;;;;11.55;4.03;;;;;;;;;;4996613;28;98729;-74
2022/04/07 05:32:59;;;;;;;8.75;4.05;;;;;;;;;;4994052;28;98454;-75
2022/04/07 05:35:29;;;;;;;13.30;4.80;;;;;;;;;;4993329;28;101387;-73
2022/04/07 05:37:56;;;;;;;13.27;4.55;;;;;;;;;;4993285;28;99794;-75
2022/04/07 05:40:23;;;;;;;6.85;3.90;;;;;;;;;;4958139;28;98519;-75
2022/04/07 05:42:50;;;;;;;10.85;4.57;;;;;;;;;;4991901;28;100210;-75
2022/04/07 05:45:16;;;;;;;13.43;4.43;;;;;;;;;;4993688;28;99477;-75
2022/04/07 05:47:43;;;;;;;13.73;5.20;;;;;;;;;;4993505;28;98519;-74
2022/04/07 05:50:10;;;;;;;11.77;4.78;;;;;;;;;;4993747;28;98993;-75
2022/04/07 05:52:36;;;;;;;8.65;5.60;;;;;;;;;;4997041;28;98916;-75
2022/04/07 05:55:03;;;;;;;6.55;4.70;;;;;;;;;;4993540;28;99654;-75
2022/04/07 05:57:32;;;;;;;13.32;5.20;;;;;;;;;;4993124;28;99924;-75
2022/04/07 06:00:06;;;;;;;8.65;4.80;;;;;;;;;;4993059;28;99107;-74
2022/04/07 06:02:40;;;;;;;6.65;4.82;;;;;;;;;;4993700;28;99429;-75
2022/04/07 06:05:07;;;;;;;9.93;5.05;;;;;;;;;;4993116;28;99255;-75
2022/04/07 06:07:34;;;;;;;9.43;4.93;;;;;;;;;;4993507;28;98267;-76
2022/04/07 06:10:01;;;;;;;2.80;1.58;;;;;;;;;;4992644;28;99314;-76
2022/04/07 06:12:28;;;;;;;4.88;0.98;;;;;;;;;;4993096;28;99598;-75
2022/04/07 06:14:54;;;;;;;22.65;1.27;;;;;;;;;;4996353;28;98204;-75
2022/04/07 06:17:31;;;;;;;1.95;0.50;;;;;;;;;;4993633;28;99139;-76
2022/04/07 06:19:57;;;;;;;3.90;0.80;;;;;;;;;;4993063;28;98375;-77
2022/04/07 06:22:24;;;;;;;1.13;0.80;;;;;;;;;;4993581;28;99375;-77
2022/04/07 06:24:50;;;;;;;4.68;0.85;;;;;;;;;;4992577;28;100402;-76
2022/04/07 06:27:16;;;;;;;2.05;0.77;;;;;;;;;;4993103;28;98366;-76
2022/04/07 06:29:43;;;;;;;4.18;1.25;;;;;;;;;;4992249;28;99853;-76
2022/04/07 06:32:09;;;;;;;8.30;1.27;;;;;;;;;;4992818;28;99794;-76
2022/04/07 06:34:36;;;;;;;4.85;0.88;;;;;;;;;;4993026;28;98389;-76
2022/04/07 06:37:02;;;;;;;5.68;1.20;;;;;;;;;;4995394;28;98878;-77
2022/04/07 06:39:29;;;;;;;2.92;1.27;;;;;;;;;;4992985;28;98329;-76
2022/04/07 06:41:55;;;;;;;6.05;1.30;;;;;;;;;;4992906;28;100854;-76
2022/04/07 06:44:21;;;;;;;5.18;0.82;;;;;;;;;;4992870;28;99552;-76
2022/04/07 06:46:48;;;;;;;6.97;1.30;;;;;;;;;;4993151;28;98249;-76
2022/04/07 06:49:14;;;;;;;4.05;0.93;;;;;;;;;;4992305;28;99675;-76
2022/04/07 06:51:41;;;;;;;6.43;0.90;;;;;;;;;;4992630;28;99247;-76
2022/04/07 06:54:07;;;;;;;4.55;1.00;;;;;;;;;;4994371;28;98476;-76
2022/04/07 06:56:33;;;;;;;2.35;0.93;;;;;;;;;;4996555;28;99219;-76
2022/04/07 06:59:01;;;;;;;8.27;1.58;;;;;;;;;;4999489;28;99741;-75
2022/04/07 07:01:27;;;;;;;8.15;1.00;;;;;;;;;;4996518;28;99441;-76
2022/04/07 07:03:53;;;;;;;6.97;0.95;;;;;;;;;;4994854;28;100879;-76
2022/04/07 07:06:20;;;;;;;4.95;1.00;;;;;;;;;;4997082;28;97615;-77
2022/04/07 07:08:46;;;;;;;6.10;1.00;;;;;;;;;;4995422;28;98757;-74
2022/04/07 07:11:14;;;;;;;6.13;1.10;;;;;;;;;;4995847;28;99718;-76
2022/04/07 07:13:40;;;;;;;6.65;1.27;;;;;;;;;;4995898;28;98990;-76
2022/04/07 07:16:06;;;;;;;8.02;1.70;;;;;;;;;;4996269;28;100210;-75
2022/04/07 07:18:33;;;;;;;5.38;0.68;;;;;;;;;;4995593;28;99779;-75
2022/04/07 07:20:59;;;;;;;6.30;1.20;;;;;;;;;;4999048;28;98204;-75
2022/04/07 07:23:26;;;;;;;4.18;1.15;;;;;;;;;;4995664;28;99656;-75
2022/04/07 07:25:52;;;;;;;8.75;1.25;;;;;;;;;;4995930;28;98324;-76
2022/04/07 07:28:18;;;;;;;7.65;1.10;;;;;;;;;;4996028;28;99832;-75
2022/04/07 07:30:45;;;;;;;10.95;1.10;;;;;;;;;;4996070;28;99384;-76
2022/04/07 07:33:11;;;;;;;3.45;0.98;;;;;;;;;;4996017;28;98265;-75
2022/04/07 07:35:37;;;;;;;6.68;1.15;;;;;;;;;;4996257;28;99347;-75
2022/04/07 07:38:04;;;;;;;6.03;0.80;;;;;;;;;;4995013;28;100643;-75
2022/04/07 07:40:32;;;;;;;6.18;0.90;;;;;;;;;;4998756;28;98488;-74
2022/04/07 07:43:00;;;;;;;6.63;1.10;;;;;;;;;;4995189;28;100278;-75
2022/04/07 07:45:27;;;;;;;3.55;0.80;;;;;;;;;;4995900;28;98273;-76
2022/04/07 07:48:14;;;;;;;9.25;1.70;;;;;;;;;;4995519;28;99512;-76
2022/04/07 07:50:42;;;;;;;5.63;0.95;;;;;;;;;;4995294;28;99565;-76
2022/04/07 07:53:16;;;;;;;6.82;1.13;;;;;;;;;;4995641;28;98312;-76
2022/04/07 07:55:42;;;;;;;3.88;1.10;;;;;;;;;;4996288;28;99322;-75
2022/04/07 07:58:08;;;;;;;6.00;1.35;;;;;;;;;;4995155;28;100497;-75
2022/04/07 08:00:35;;;;;;;5.10;1.10;;;;;;;;;;4995864;28;98262;-76
2022/04/07 08:03:01;;;;;;;3.55;1.08;;;;;;;;;;4998173;28;98949;-76
2022/04/07 08:05:28;;;;;;;5.15;1.15;;;;;;;;;;4995085;28;98312;-75
2022/04/07 08:07:54;;;;;;;5.47;1.20;;;;;;;;;;4995474;28;99289;-75
2022/04/07 08:10:20;;;;;;;5.28;0.90;;;;;;;;;;4994873;28;99703;-76
2022/04/07 08:12:47;;;;;;;7.32;1.13;;;;;;;;;;4994246;28;98400;-76
2022/04/07 08:15:13;;;;;;;5.20;1.00;;;;;;;;;;4995135;28;100985;-76
2022/04/07 08:17:40;;;;;;;4.57;1.73;;;;;;;;;;4994868;28;100672;-76
2022/04/07 08:20:09;;;;;;;3.70;1.42;;;;;;;;;;4995354;28;97560;-76
2022/04/07 08:22:36;;;;;;;3.53;1.10;;;;;;;;;;4995300;28;98662;-75
2022/04/07 08:25:02;;;;;;;4.03;0.80;;;;;;;;;;4998181;28;99675;-76
2022/04/07 08:27:29;;;;;;;3.67;0.98;;;;;;;;;;4994797;28;99325;-76
2022/04/07 08:29:55;;;;;;;1.70;0.77;;;;;;;;;;4993693;28;99582;-76
2022/04/07 08:32:21;;;;;;;2.85;1.00;;;;;;;;;;4994892;28;98264;-76
2022/04/07 08:34:48;;;;;;;1.58;0.70;;;;;;;;;;4994782;28;99789;-76
2022/04/07 08:37:14;;;;;;;4.03;0.63;;;;;;;;;;4994470;28;99617;-76
2022/04/07 08:39:41;;;;;;;3.25;0.85;;;;;;;;;;4994967;28;98365;-75
2022/04/07 08:42:07;;;;;;;4.78;1.02;;;;;;;;;;4994637;28;101264;-76
2022/04/07 08:44:34;;;;;;;13.50;1.00;;;;;;;;;;4994643;28;98483;-78
2022/04/07 08:47:01;;;;;;;2.03;0.70;;;;;;;;;;4997037;28;98317;-75
2022/04/07 08:49:29;;;;;;;1.73;0.57;;;;;;;;;;4994684;28;99608;-77
2022/04/07 08:51:57;;;;;;;4.70;1.00;;;;;;;;;;4994201;28;99033;-77
2022/04/07 08:54:24;;;;;;;3.25;1.00;;;;;;;;;;4994941;28;100066;-77
2022/04/07 08:56:50;;;;;;;3.30;0.73;;;;;;;;;;4994072;28;100012;-77
2022/04/07 08:59:18;;;;;;;5.88;1.20;;;;;;;;;;4994717;28;98466;-78
2022/04/07 09:01:44;;;;;;;6.95;1.45;;;;;;;;;;4994150;28;99468;-78
2022/04/07 09:04:12;;;;;;;9.10;1.30;;;;;;;;;;4994373;28;99699;-79
2022/04/07 09:06:39;;;;;;;3.15;0.93;;;;;;;;;;4994816;28;98313;-77
2022/04/07 09:09:32;;;;;;;2.95;1.10;;;;;;;;;;4997777;28;99446;-77
2022/04/07 09:11:59;;;;;;;10.15;1.85;;;;;;;;;;4992847;28;99737;-77
2022/04/07 09:14:30;;;;;;;3.65;1.05;;;;;;;;;;4994101;28;100173;-77
2022/04/07 09:16:57;;;;;;;3.72;1.10;;;;;;;;;;4992702;28;100562;-77
2022/04/07 09:19:23;;;;;;;7.03;1.02;;;;;;;;;;4994162;28;98435;-78
2022/04/07 09:22:09;;;;;;;4.28;1.33;;;;;;;;;;4994685;28;99486;-77
2022/04/07 09:24:39;;;;;;;7.80;1.52;;;;;;;;;;4993974;28;100077;-78
2022/04/07 09:27:07;;;;;;;5.05;1.17;;;;;;;;;;4994721;28;98378;-77
2022/04/07 09:29:40;;;;;;;5.72;1.02;;;;;;;;;;4997383;28;99419;-78
2022/04/07 09:32:20;;;;;;;3.30;0.95;;;;;;;;;;4994219;28;98217;-79
2022/04/07 09:34:57;;;;;;;6.05;1.38;;;;;;;;;;4994759;28;99440;-77
2022/04/07 09:37:24;;;;;;;11.35;1.85;;;;;;;;;;4993807;28;100865;-77
2022/04/07 09:40:11;;;;;;;14.25;3.03;;;;;;;;;;4994309;28;98503;-77
2022/04/07 09:42:37;;;;;;;8.77;1.85;;;;;;;;;;4993225;28;99366;-78
2022/04/07 09:45:07;;;;;;;5.70;1.77;;;;;;;;;;4993480;28;100738;-77
2022/04/07 09:47:41;;;;;;;7.82;1.83;;;;;;;;;;4993375;28;98420;-76
2022/04/07 09:50:10;;;;;;;3.35;1.40;;;;;;;;;;4993951;28;98779;-78
2022/04/07 09:52:40;;;;;;;7.63;1.58;;;;;;;;;;4996597;28;99782;-77
2022/04/07 09:55:08;;;;;;;6.78;2.03;;;;;;;;;;4993874;28;99517;-78
2022/04/07 09:57:34;;;;;;;9.73;1.67;;;;;;;;;;4993356;28;99310;-78
2022/04/07 10:00:03;;;;;;;6.85;1.52;;;;;;;;;;4994111;28;97830;-78
2022/04/07 10:02:30;;;;;;;5.05;1.20;;;;;;;;;;4993781;28;98238;-79
2022/04/07 10:04:57;;;;;;;5.80;1.40;;;;;;;;;;4993310;28;100180;-78
2022/04/07 10:07:24;;;;;;;9.95;1.70;;;;;;;;;;4993170;28;99194;-77
2022/04/07 10:09:51;;;;;;;5.38;1.55;;;;;;;;;;4993308;28;101198;-79
2022/04/07 10:12:17;;;;;;;4.82;1.58;;;;;;;;;;4993116;28;99930;-78
2022/04/07 10:14:44;;;;;;;5.85;1.48;;;;;;;;;;4996756;28;98403;-78
2022/04/07 10:17:13;;;;;;;9.35;1.85;;;;;;;;;;4991651;28;102835;-78
2022/04/07 10:19:48;;;;;;;10.55;1.92;;;;;;;;;;4992991;28;98384;-79
2022/04/07 10:22:15;;;;;;;5.80;1.52;;;;;;;;;;4993087;28;100353;-78
2022/04/07 10:24:45;;;;;;;2.80;1.00;;;;;;;;;;4993446;28;98520;-78
2022/04/07 10:27:33;;;;;;;8.23;2.05;;;;;;;;;;4992980;28;98329;-76
2022/04/07 10:30:10;;;;;;;9.05;2.00;;;;;;;;;;4993288;28;99332;-78
2022/04/07 10:32:52;;;;;;;9.90;1.85;;;;;;;;;;4992388;28;100326;-80
2022/04/07 10:35:28;;;;;;;4.90;1.63;;;;;;;;;;4993555;28;98260;-80
2022/04/07 10:37:55;;;;;;;7.95;2.15;;;;;;;;;;4996358;28;99509;-78
2022/04/07 10:40:35;;;;;;;5.22;1.70;;;;;;;;;;4992859;28;98287;-78
2022/04/07 10:43:10;;;;;;;7.55;2.00;;;;;;;;;;4993056;28;99852;-79
2022/04/07 10:45:38;;;;;;;8.60;2.15;;;;;;;;;;4991551;28;103318;-78
2022/04/07 10:48:24;;;;;;;7.72;2.05;;;;;;;;;;4974926;28;98854;-78
2022/04/07 10:51:00;;;;;;;9.40;2.53;;;;;;;;;;4993518;28;99426;-79
2022/04/07 10:53:28;;;;;;;9.35;1.92;;;;;;;;;;4991673;28;99739;-78
2022/04/07 10:55:56;;;;;;;6.25;1.60;;;;;;;;;;4992978;28;98407;-76
2022/04/07 10:58:38;;;;;;;9.27;2.10;;;;;;;;;;4992358;28;99661;-79
2022/04/07 11:01:04;;;;;;;11.98;2.63;;;;;;;;;;4995484;28;100658;-78
2022/04/07 11:03:31;;;;;;;9.68;2.17;;;;;;;;;;4992964;28;99740;-78
2022/04/07 11:06:03;;;;;;;8.82;2.55;;;;;;;;;;4992281;28;100575;-79
2022/04/07 11:08:30;;;;;;;11.95;2.45;;;;;;;;;;4991683;28;98294;-77
2022/04/07 11:10:56;;;;;;;8.90;2.10;;;;;;;;;;4992739;28;99359;-78
2022/04/07 11:13:43;;;;;;;12.15;2.03;;;;;;;;;;4992394;28;99506;-80
2022/04/07 11:16:14;;;;;;;7.82;2.15;;;;;;;;;;4993501;28;97517;-78
2022/04/07 11:19:00;;;;;;;12.90;2.17;;;;;;;;;;4992601;28;99193;-80
2022/04/07 11:21:42;;;;;;;13.63;2.63;;;;;;;;;;4992154;28;99995;-77
2022/04/07 11:24:08;;;;;;;6.00;1.85;;;;;;;;;;4994704;28;99139;-77
2022/04/07 11:26:34;;;;;;;12.48;2.10;;;;;;;;;;4990968;28;100956;-79
2022/04/07 11:29:05;;;;;;;9.85;2.47;;;;;;;;;;4992407;28;98487;-81
2022/04/07 11:31:39;;;;;;;8.37;2.37;;;;;;;;;;4991209;28;101086;-79
2022/04/07 11:34:25;;;;;;;12.23;2.20;;;;;;;;;;4991524;28;100930;-77
2022/04/07 11:36:51;;;;;;;8.93;2.08;;;;;;;;;;4992521;28;99926;-77
2022/04/07 11:39:19;;;;;;;7.47;1.75;;;;;;;;;;4992500;28;99639;-78
2022/04/07 11:41:45;;;;;;;15.68;3.13;;;;;;;;;;4994717;28;100244;-77
2022/04/07 11:44:12;;;;;;;13.50;3.13;;;;;;;;;;4997768;28;98424;-78
2022/04/07 11:46:40;;;;;;;16.27;2.30;;;;;;;;;;4994997;28;99784;-78
2022/04/07 11:49:07;;;;;;;12.93;2.53;;;;;;;;;;4994966;28;99147;-77
2022/04/07 11:51:34;;;;;;;9.13;2.30;;;;;;;;;;4995648;28;100476;-79
2022/04/07 11:54:01;;;;;;;7.15;2.58;;;;;;;;;;4995287;28;99712;-80
2022/04/07 11:56:31;;;;;;;6.88;1.80;;;;;;;;;;4995641;28;98449;-77
2022/04/07 11:59:08;;;;;;;7.38;2.15;;;;;;;;;;4995441;28;100667;-79
2022/04/07 12:01:38;;;;;;;8.07;2.20;;;;;;;;;;4995116;28;99857;-80
2022/04/07 12:04:05;;;;;;;6.32;2.33;;;;;;;;;;4994776;28;98295;-79
2022/04/07 12:06:43;;;;;;;15.38;2.33;;;;;;;;;;4998872;28;101010;-79
2022/04/07 12:09:11;;;;;;;9.25;2.50;;;;;;;;;;4995108;28;98423;-80
2022/04/07 12:11:38;;;;;;;8.23;1.85;;;;;;;;;;4995116;28;99401;-79
2022/04/07 12:14:06;;;;;;;9.57;1.75;;;;;;;;;;4994433;28;100609;-80
2022/04/07 12:16:32;;;;;;;11.40;2.05;;;;;;;;;;4994132;28;98520;-79
2022/04/07 12:19:01;;;;;;;8.77;2.38;;;;;;;;;;4995589;28;99097;-80
2022/04/07 12:21:28;;;;;;;11.63;2.10;;;;;;;;;;4994820;28;100990;-78
2022/04/07 12:24:08;;;;;;;10.23;2.20;;;;;;;;;;4995242;28;98294;-79
2022/04/07 12:26:38;;;;;;;5.88;1.48;;;;;;;;;;4994927;28;100755;-81
2022/04/07 12:29:05;;;;;;;8.98;2.22;;;;;;;;;;4994092;28;100810;-81
2022/04/07 12:31:31;;;;;;;8.60;1.65;;;;;;;;;;4994700;28;99952;-82
2022/04/07 12:34:07;;;;;;;9.77;2.10;;;;;;;;;;4994510;28;99679;-81
2022/04/07 12:36:39;;;;;;;10.90;2.10;;;;;;;;;;4994749;28;98425;-81
2022/04/07 12:39:12;;;;;;;9.80;1.70;;;;;;;;;;4993615;28;99998;-82
2022/04/07 12:41:39;;;;;;;11.35;1.50;;;;;;;;;;4993832;28;99355;-81
2022/04/07 12:44:09;;;;;;;10.50;2.03;;;;;;;;;;4995152;28;98334;-81
2022/04/07 12:46:45;;;;;;;12.35;2.20;;;;;;;;;;4993602;28;101250;-80
2022/04/07 12:49:25;;;;;;;12.52;2.50;;;;;;;;;;4992464;28;103874;-82
2022/04/07 12:52:08;;;;;;;10.75;2.10;;;;;;;;;;4995459;28;98447;-81
2022/04/07 12:54:35;;;;;;;14.35;2.97;;;;;;;;;;4993337;28;100478;-81
2022/04/07 12:57:08;;;;;;;12.77;2.35;;;;;;;;;;4977731;28;97809;-82
2022/04/07 12:59:34;;;;;;;7.23;2.37;;;;;;;;;;4976747;28;101218;-79
2022/04/07 13:02:01;;;;;;;11.38;1.65;;;;;;;;;;4992970;28;102146;-79
2022/04/07 13:04:45;;;;;;;12.23;2.28;;;;;;;;;;4992864;28;99284;-81
2022/04/07 13:07:13;;;;;;;8.20;1.88;;;;;;;;;;4993177;28;103032;-79
2022/04/07 13:09:43;;;;;;;8.73;2.40;;;;;;;;;;4994200;28;99392;-81
2022/04/07 13:12:10;;;;;;;11.40;2.47;;;;;;;;;;4994159;28;98326;-80
2022/04/07 13:14:36;;;;;;;10.90;1.63;;;;;;;;;;4995912;28;101652;-81
2022/04/07 13:17:03;;;;;;;12.05;2.33;;;;;;;;;;4993110;28;98601;-81
2022/04/07 13:19:29;;;;;;;6.70;1.75;;;;;;;;;;4976563;28;102382;-80
2022/04/07 13:21:56;;;;;;;13.40;2.33;;;;;;;;;;4994195;28;99155;-80
2022/04/07 13:24:22;;;;;;;7.03;1.92;;;;;;;;;;4993234;28;98423;-79
2022/04/07 13:26:49;;;;;;;9.77;2.00;;;;;;;;;;4993149;28;98748;-79
2022/04/07 13:29:16;;;;;;;8.13;1.83;;;;;;;;;;4993392;28;100448;-81
2022/04/07 13:31:43;;;;;;;10.00;2.17;;;;;;;;;;4993095;28;98645;-78
2022/04/07 13:34:09;;;;;;;6.53;1.67;;;;;;;;;;4993143;28;99625;-78
2022/04/07 13:36:38;;;;;;;13.98;2.05;;;;;;;;;;4979125;28;102685;-81
2022/04/07 13:39:05;;;;;;;20.40;2.45;;;;;;;;;;4993170;28;98711;-81
2022/04/07 13:41:31;;;;;;;13.05;2.58;;;;;;;;;;4992740;28;99819;-77
2022/04/07 13:43:58;;;;;;;5.40;1.85;;;;;;;;;;4993575;28;98337;-79
2022/04/07 13:46:24;;;;;;;4.38;1.83;;;;;;;;;;4995514;28;101387;-79
2022/04/07 13:48:51;;;;;;;6.43;2.40;;;;;;;;;;4991728;28;102299;-79
2022/04/07 13:51:18;;;;;;;9.77;1.90;;;;;;;;;;4993107;28;98450;-81
2022/04/07 13:53:44;;;;;;;11.25;1.70;;;;;;;;;;4992278;28;99948;-80
2022/04/07 13:56:14;;;;;;;10.75;1.92;;;;;;;;;;4995010;28;102876;-80
2022/04/07 13:58:41;;;;;;;11.73;2.22;;;;;;;;;;4992720;28;99448;-78
2022/04/07 14:01:11;;;;;;;11.57;2.17;;;;;;;;;;4991988;28;101010;-80
2022/04/07 14:03:43;;;;;;;14.00;2.05;;;;;;;;;;4992126;28;98461;-80
2022/04/07 14:06:10;;;;;;;6.85;1.23;;;;;;;;;;4993812;28;99597;-80
2022/04/07 14:08:38;;;;;;;11.52;2.25;;;;;;;;;;4991833;28;102878;-79
2022/04/07 14:11:07;;;;;;;8.25;1.90;;;;;;;;;;4993714;28;97770;-80
2022/04/07 14:13:34;;;;;;;7.25;1.40;;;;;;;;;;4993560;28;98489;-79
2022/04/07 14:16:04;;;;;;;6.65;2.08;;;;;;;;;;4993191;28;101210;-80
2022/04/07 14:18:50;;;;;;;9.55;1.65;;;;;;;;;;4995276;28;99242;-78
2022/04/07 14:21:18;;;;;;;7.30;1.40;;;;;;;;;;4992302;28;100961;-79
2022/04/07 14:23:44;;;;;;;8.82;1.75;;;;;;;;;;4992308;28;98548;-80
2022/04/07 14:26:11;;;;;;;7.10;2.15;;;;;;;;;;4992666;28;98669;-81
2022/04/07 14:28:37;;;;;;;7.25;1.35;;;;;;;;;;4975428;28;102269;-79
2022/04/07 14:31:04;;;;;;;8.18;1.27;;;;;;;;;;4992323;28;98431;-81
2022/04/07 14:33:30;;;;;;;4.30;1.60;;;;;;;;;;4991894;28;102554;-80
2022/04/07 14:35:57;;;;;;;5.45;1.30;;;;;;;;;;4993349;28;100213;-77
2022/04/07 14:38:23;;;;;;;8.05;1.95;;;;;;;;;;4993350;28;98401;-76
2022/04/07 14:40:50;;;;;;;8.45;1.85;;;;;;;;;;4995843;28;100860;-75